createdAt,value
2022-08-28T00:01:01.870Z,20.28
2022-08-28T00:03:35.323Z,20.30
2022-08-28T00:06:06.203Z,20.35
2022-08-28T00:08:36.580Z,20.28
2022-08-28T00:11:07.460Z,20.22
2022-08-28T00:13:38.065Z,20.21
2022-08-28T00:16:09.665Z,20.25
2022-08-28T00:18:44.116Z,20.17
2022-08-28T00:21:17.833Z,20.10
2022-08-28T00:23:48.481Z,19.99
2022-08-28T00:26:38.727Z,19.97
2022-08-28T00:29:07.477Z,19.90
2022-08-28T00:31:40.207Z,19.91
2022-08-28T00:34:13.914Z,19.80
2022-08-28T00:36:45.403Z,19.78
2022-08-28T00:39:15.719Z,19.76
2022-08-28T00:41:52.506Z,19.78
2022-08-28T00:44:30.871Z,19.80
2022-08-28T00:47:03.358Z,19.80
2022-08-28T00:49:41.074Z,19.76
2022-08-28T00:52:11.788Z,19.82
2022-08-28T00:54:59.446Z,19.88
2022-08-28T00:57:35.223Z,19.89
2022-08-28T01:00:12.367Z,19.90
2022-08-28T01:02:44.076Z,19.89
2022-08-28T01:05:19.355Z,19.94
2022-08-28T01:07:50.948Z,20.01
2022-08-28T01:10:25.944Z,20.07
2022-08-28T01:12:57.558Z,20.07
2022-08-28T01:15:32.968Z,19.98
2022-08-28T01:18:08.573Z,20.03
2022-08-28T01:20:50.753Z,20.02
2022-08-28T01:23:42.811Z,20.02
2022-08-28T01:26:13.383Z,20.00
2022-08-28T01:28:44.013Z,19.96
2022-08-28T01:31:17.210Z,19.99
2022-08-28T01:33:49.592Z,20.00
2022-08-28T01:36:21.367Z,19.94
2022-08-28T01:39:09.760Z,20.01
2022-08-28T01:41:42.307Z,20.07
2022-08-28T01:44:12.808Z,20.04
2022-08-28T01:46:44.935Z,20.10
2022-08-28T01:49:15.656Z,20.06
2022-08-28T01:51:46.204Z,20.03
2022-08-28T01:54:19.172Z,20.08
2022-08-28T01:56:49.716Z,19.97
2022-08-28T01:59:20.312Z,19.96
2022-08-28T02:01:51.065Z,20.01
2022-08-28T02:04:21.314Z,20.08
2022-08-28T02:07:02.164Z,19.99
2022-08-28T02:09:35.060Z,19.99
2022-08-28T02:12:07.096Z,19.99
2022-08-28T02:14:38.787Z,20.04
2022-08-28T02:17:09.034Z,20.07
2022-08-28T02:19:39.227Z,20.11
2022-08-28T02:22:09.550Z,20.07
2022-08-28T02:24:42.745Z,20.08
2022-08-28T02:27:13.063Z,20.08
2022-08-28T02:29:44.282Z,20.02
2022-08-28T02:32:14.807Z,20.02
2022-08-28T02:34:45.054Z,19.94
2022-08-28T02:37:15.681Z,20.00
2022-08-28T02:39:48.566Z,19.97
2022-08-28T02:42:19.188Z,20.01
2022-08-28T02:44:49.691Z,20.02
2022-08-28T02:47:20.220Z,20.02
2022-08-28T02:49:50.508Z,19.92
2022-08-28T02:52:22.027Z,19.90
2022-08-28T02:54:54.867Z,19.87
2022-08-28T02:57:25.759Z,19.86
2022-08-28T02:59:56.688Z,19.83
2022-08-28T03:02:26.948Z,19.84
2022-08-28T03:04:57.349Z,19.81
2022-08-28T03:07:28.052Z,19.79
2022-08-28T03:10:00.673Z,19.75
2022-08-28T03:12:31.023Z,19.65
2022-08-28T03:15:01.202Z,19.69
2022-08-28T03:17:31.964Z,19.73
2022-08-28T03:20:01.914Z,19.63
2022-08-28T03:22:44.459Z,19.62
2022-08-28T03:25:17.872Z,19.64
2022-08-28T03:27:48.139Z,19.60
2022-08-28T03:30:19.552Z,19.52
2022-08-28T03:32:49.996Z,19.52
2022-08-28T03:35:21.990Z,19.49
2022-08-28T03:37:52.182Z,19.45
2022-08-28T03:40:25.367Z,19.41
2022-08-28T03:42:55.815Z,19.34
2022-08-28T03:45:26.022Z,19.31
2022-08-28T03:47:57.067Z,19.28
2022-08-28T03:50:28.960Z,19.29
2022-08-28T03:52:59.843Z,19.30
2022-08-28T03:55:32.659Z,19.32
2022-08-28T03:58:04.595Z,19.26
2022-08-28T04:00:36.306Z,19.22
2022-08-28T04:03:06.939Z,19.20
2022-08-28T04:05:37.736Z,19.20
2022-08-28T04:08:08.126Z,19.17
2022-08-28T04:10:41.339Z,19.12
2022-08-28T04:13:11.767Z,19.07
2022-08-28T04:15:42.039Z,18.95
2022-08-28T04:18:13.479Z,18.88
2022-08-28T04:20:46.418Z,18.87
2022-08-28T04:23:16.728Z,18.98
2022-08-28T04:25:49.470Z,18.92
2022-08-28T04:28:19.790Z,18.91
2022-08-28T04:30:49.981Z,18.93
2022-08-28T04:33:20.173Z,18.92
2022-08-28T04:35:50.459Z,18.89
2022-08-28T04:38:21.339Z,18.86
2022-08-28T04:40:54.128Z,18.78
2022-08-28T04:43:24.370Z,18.73
2022-08-28T04:45:56.396Z,18.76
2022-08-28T04:48:26.742Z,18.77
2022-08-28T04:50:56.918Z,18.74
2022-08-28T04:53:27.488Z,18.85
2022-08-28T04:56:00.810Z,18.83
2022-08-28T04:58:32.347Z,18.81
2022-08-28T05:01:08.399Z,18.85
2022-08-28T05:03:39.252Z,18.90
2022-08-28T05:06:10.160Z,18.94
2022-08-28T05:08:40.343Z,19.00
2022-08-28T05:11:22.105Z,19.06
2022-08-28T05:14:06.537Z,19.05
2022-08-28T05:16:43.093Z,18.96
2022-08-28T05:19:13.441Z,18.88
2022-08-28T05:21:44.195Z,18.80
2022-08-28T05:24:14.565Z,18.85
2022-08-28T05:26:48.201Z,18.81
2022-08-28T05:29:19.593Z,18.83
2022-08-28T05:31:50.055Z,18.76
2022-08-28T05:34:20.869Z,18.67
2022-08-28T05:36:50.823Z,18.58
2022-08-28T05:39:21.334Z,18.62
2022-08-28T05:41:54.143Z,18.60
2022-08-28T05:44:24.376Z,18.53
2022-08-28T05:46:54.736Z,18.60
2022-08-28T05:49:25.253Z,18.64
2022-08-28T05:51:55.479Z,18.52
2022-08-28T05:54:25.772Z,18.55
2022-08-28T05:56:59.034Z,18.58
2022-08-28T05:59:29.194Z,18.66
2022-08-28T06:02:03.623Z,18.74
2022-08-28T06:04:35.677Z,18.70
2022-08-28T06:07:08.216Z,18.73
2022-08-28T06:09:38.498Z,18.74
2022-08-28T06:12:12.729Z,18.80
2022-08-28T06:14:44.976Z,18.88
2022-08-28T06:17:15.173Z,18.91
2022-08-28T06:19:45.425Z,18.93
2022-08-28T06:22:15.612Z,18.95
2022-08-28T06:24:45.727Z,18.90
2022-08-28T06:27:19.086Z,18.91
2022-08-28T06:29:49.288Z,18.86
2022-08-28T06:32:19.493Z,18.81
2022-08-28T06:34:49.702Z,18.79
2022-08-28T06:37:19.929Z,18.75
2022-08-28T06:39:50.081Z,18.79
2022-08-28T06:42:23.144Z,18.84
2022-08-28T06:44:53.294Z,18.89
2022-08-28T06:47:23.745Z,19.00
2022-08-28T06:49:54.598Z,18.95
2022-08-28T06:52:24.816Z,18.95
2022-08-28T06:54:55.838Z,18.91
2022-08-28T06:57:28.910Z,18.94
2022-08-28T06:59:59.444Z,18.88
2022-08-28T07:02:29.762Z,18.93
2022-08-28T07:05:00.588Z,18.93
2022-08-28T07:07:32.375Z,18.86
2022-08-28T07:10:03.051Z,18.89
2022-08-28T07:12:35.827Z,18.90
2022-08-28T07:15:06.724Z,18.92
2022-08-28T07:17:36.986Z,19.01
2022-08-28T07:20:08.319Z,19.08
2022-08-28T07:22:40.929Z,19.06
2022-08-28T07:25:13.008Z,19.08
2022-08-28T07:27:45.802Z,19.10
2022-08-28T07:30:17.176Z,19.10
2022-08-28T07:32:49.344Z,19.08
2022-08-28T07:35:21.050Z,19.13
2022-08-28T07:37:51.877Z,19.19
2022-08-28T07:40:22.479Z,19.19
2022-08-28T07:43:07.754Z,19.18
2022-08-28T07:45:38.131Z,19.14
2022-08-28T07:48:11.634Z,19.13
2022-08-28T07:50:42.052Z,19.17
2022-08-28T07:53:12.635Z,19.23
2022-08-28T07:55:42.796Z,19.42
2022-08-28T07:58:16.354Z,19.46
2022-08-28T08:00:46.566Z,19.57
2022-08-28T08:03:16.982Z,19.65
2022-08-28T08:05:55.955Z,19.61
2022-08-28T08:08:26.831Z,19.56
2022-08-28T08:11:03.107Z,19.59
2022-08-28T08:13:40.736Z,19.68
2022-08-28T08:16:15.053Z,19.64
2022-08-28T08:18:45.946Z,19.85
2022-08-28T08:21:19.258Z,19.89
2022-08-28T08:23:50.684Z,19.93
2022-08-28T08:26:23.790Z,19.84
2022-08-28T08:28:56.922Z,19.71
2022-08-28T08:31:32.500Z,19.81
2022-08-28T08:34:06.663Z,19.90
2022-08-28T08:36:39.205Z,19.83
2022-08-28T08:39:11.013Z,19.81
2022-08-28T08:41:48.382Z,19.85
2022-08-28T08:44:33.508Z,19.87
2022-08-28T08:47:15.140Z,19.92
2022-08-28T08:49:54.062Z,20.08
2022-08-28T08:52:37.569Z,20.41
2022-08-28T08:55:27.209Z,21.06
2022-08-28T08:58:06.662Z,21.54
2022-08-28T09:00:48.877Z,21.90
2022-08-28T09:03:27.713Z,22.03
2022-08-28T09:06:03.415Z,22.14
2022-08-28T09:08:39.963Z,22.41
2022-08-28T09:11:26.280Z,22.52
2022-08-28T09:14:04.889Z,22.99
2022-08-28T09:16:41.732Z,23.00
2022-08-28T09:19:16.169Z,23.15
2022-08-28T09:21:48.817Z,23.48
2022-08-28T09:24:29.235Z,23.50
2022-08-28T09:27:03.620Z,23.65
2022-08-28T09:29:37.769Z,23.69
2022-08-28T09:32:26.523Z,23.76
2022-08-28T09:35:22.065Z,24.09
2022-08-28T09:37:52.245Z,24.39
2022-08-28T09:40:48.337Z,24.71
2022-08-28T09:43:30.244Z,24.70
2022-08-28T09:46:04.654Z,24.28
2022-08-28T09:48:41.255Z,24.13
2022-08-28T09:51:13.877Z,24.30
2022-08-28T09:53:59.761Z,24.29
2022-08-28T09:56:34.102Z,24.06
2022-08-28T09:59:09.455Z,23.88
2022-08-28T10:02:03.252Z,23.49
2022-08-28T10:05:00.252Z,23.11
2022-08-28T10:07:41.958Z,23.05
2022-08-28T10:10:34.847Z,22.89
2022-08-28T10:13:14.721Z,22.89
2022-08-28T10:16:05.007Z,23.30
2022-08-28T10:18:46.730Z,23.04
2022-08-28T10:21:27.356Z,22.87
2022-08-28T10:24:26.078Z,22.65
2022-08-28T10:27:07.600Z,22.52
2022-08-28T10:29:51.644Z,22.32
2022-08-28T10:33:03.901Z,21.87
2022-08-28T10:35:49.569Z,21.63
2022-08-28T10:38:33.825Z,21.46
2022-08-28T10:41:12.230Z,21.28
2022-08-28T10:43:48.859Z,21.33
2022-08-28T10:46:27.225Z,21.38
2022-08-28T10:49:05.100Z,21.39
2022-08-28T10:51:43.599Z,21.47
2022-08-28T10:54:26.409Z,21.48
2022-08-28T10:57:03.242Z,21.46
2022-08-28T10:59:42.175Z,21.41
2022-08-28T11:02:16.632Z,21.38
2022-08-28T11:04:50.401Z,21.36
2022-08-28T11:07:31.345Z,21.22
2022-08-28T11:10:22.749Z,21.36
2022-08-28T11:12:55.023Z,21.38
2022-08-28T11:15:56.286Z,21.42
2022-08-28T11:18:57.820Z,21.53
2022-08-28T11:21:32.248Z,21.64
2022-08-28T11:24:10.052Z,21.23
2022-08-28T11:26:59.450Z,20.95
2022-08-28T11:30:06.616Z,21.33
2022-08-28T11:32:59.415Z,21.42
2022-08-28T11:35:48.514Z,21.55
2022-08-28T11:39:15.214Z,21.64
2022-08-28T11:42:39.436Z,21.59
2022-08-28T11:45:22.624Z,21.56
2022-08-28T11:47:59.481Z,21.55
2022-08-28T11:50:36.707Z,21.64
2022-08-28T11:53:46.682Z,21.63
2022-08-28T11:56:51.734Z,21.86
2022-08-28T11:59:53.335Z,22.03
2022-08-28T12:02:51.179Z,22.26
2022-08-28T12:05:54.901Z,22.58
2022-08-28T12:09:13.444Z,22.63
2022-08-28T12:12:04.366Z,22.78
2022-08-28T12:15:07.827Z,22.93
2022-08-28T12:17:53.888Z,23.12
2022-08-28T12:21:01.796Z,23.15
2022-08-28T12:23:45.117Z,23.20
2022-08-28T12:26:27.407Z,23.47
2022-08-28T12:29:01.453Z,23.62
2022-08-28T12:32:18.839Z,23.60
2022-08-28T12:35:21.085Z,23.59
2022-08-28T12:38:05.056Z,23.66
2022-08-28T12:40:50.646Z,23.53
2022-08-28T12:43:35.808Z,23.45
2022-08-28T12:46:18.895Z,23.45
2022-08-28T12:48:59.561Z,23.30
2022-08-28T12:51:35.812Z,23.47
2022-08-28T12:54:09.054Z,23.62
2022-08-28T12:56:41.883Z,23.50
2022-08-28T12:59:35.296Z,23.60
2022-08-28T13:02:07.036Z,23.83
2022-08-28T13:04:41.084Z,23.89
2022-08-28T13:07:16.977Z,23.94
2022-08-28T13:09:52.074Z,23.92
2022-08-28T13:12:31.978Z,24.00
2022-08-28T13:16:01.633Z,23.82
2022-08-28T13:18:56.636Z,23.94
2022-08-28T13:21:39.276Z,23.90
2022-08-28T13:24:43.703Z,23.79
2022-08-28T13:27:25.471Z,23.80
2022-08-28T13:30:04.659Z,24.32
2022-08-28T13:32:42.006Z,24.84
2022-08-28T13:35:37.473Z,25.78
2022-08-28T13:38:11.950Z,26.28
2022-08-28T13:40:58.799Z,26.12
2022-08-28T13:43:32.827Z,27.62
2022-08-28T13:46:03.032Z,27.60
2022-08-28T13:48:35.856Z,27.57
2022-08-28T13:51:10.726Z,27.35
2022-08-28T13:53:42.850Z,27.46
2022-08-28T13:56:13.472Z,28.55
2022-08-28T13:58:43.871Z,29.93
2022-08-28T14:01:44.920Z,30.81
2022-08-28T14:04:15.332Z,31.85
2022-08-28T14:06:45.710Z,32.43
2022-08-28T14:09:17.684Z,32.25
2022-08-28T14:11:49.786Z,32.91
2022-08-28T14:14:20.703Z,33.32
2022-08-28T14:16:51.683Z,33.07
2022-08-28T14:19:25.878Z,32.65
2022-08-28T14:21:56.350Z,32.34
2022-08-28T14:24:27.201Z,32.79
2022-08-28T14:26:58.673Z,33.11
2022-08-28T14:29:29.094Z,33.18
2022-08-28T14:31:59.881Z,33.54
2022-08-28T14:34:34.866Z,33.27
2022-08-28T14:37:05.104Z,32.10
2022-08-28T14:39:35.904Z,31.73
2022-08-28T14:42:13.083Z,30.80
2022-08-28T14:44:43.566Z,32.26
2022-08-28T14:47:14.716Z,32.90
2022-08-28T14:49:47.704Z,33.48
2022-08-28T14:52:19.503Z,33.31
2022-08-28T14:54:49.751Z,32.19
2022-08-28T14:57:20.054Z,32.18
2022-08-28T14:59:50.285Z,32.92
2022-08-28T15:02:20.448Z,33.37
2022-08-28T15:04:53.304Z,33.03
2022-08-28T15:07:23.940Z,32.80
2022-08-28T15:09:55.096Z,32.60
2022-08-28T15:12:25.847Z,32.16
2022-08-28T15:14:57.239Z,31.95
2022-08-28T15:17:33.952Z,31.46
2022-08-28T15:20:09.174Z,31.25
2022-08-28T15:22:39.436Z,30.34
2022-08-28T15:25:10.863Z,29.37
2022-08-28T15:27:41.569Z,29.93
2022-08-28T15:30:13.867Z,30.64
2022-08-28T15:32:46.240Z,31.10
2022-08-28T15:35:19.292Z,31.24
2022-08-28T15:37:49.518Z,30.85
2022-08-28T15:40:32.434Z,30.76
2022-08-28T15:43:02.720Z,30.42
2022-08-28T15:45:33.028Z,30.45
2022-08-28T15:48:03.266Z,30.52
2022-08-28T15:50:36.396Z,30.31
2022-08-28T15:53:07.913Z,30.14
2022-08-28T15:55:38.133Z,29.96
2022-08-28T15:58:08.832Z,29.68
2022-08-28T16:00:44.951Z,29.39
2022-08-28T16:03:15.696Z,28.85
2022-08-28T16:05:49.701Z,28.38
2022-08-28T16:08:19.958Z,28.06
2022-08-28T16:10:51.726Z,27.62
2022-08-28T16:13:23.832Z,27.19
2022-08-28T16:15:54.133Z,26.95
2022-08-28T16:18:24.300Z,26.72
2022-08-28T16:20:59.521Z,26.42
2022-08-28T16:23:31.725Z,26.23
2022-08-28T16:26:02.676Z,26.08
2022-08-28T16:28:32.950Z,25.77
2022-08-28T16:31:07.431Z,25.52
2022-08-28T16:33:38.479Z,25.36
2022-08-28T16:36:16.903Z,25.26
2022-08-28T16:39:00.469Z,25.21
2022-08-28T16:41:34.975Z,25.06
2022-08-28T16:44:05.900Z,24.98
2022-08-28T16:46:36.348Z,24.87
2022-08-28T16:49:07.002Z,24.76
2022-08-28T16:51:40.508Z,24.64
2022-08-28T16:54:10.794Z,24.40
2022-08-28T16:56:41.124Z,24.32
2022-08-28T16:59:11.406Z,24.31
2022-08-28T17:01:42.635Z,24.23
2022-08-28T17:04:13.692Z,24.09
2022-08-28T17:06:47.628Z,23.98
2022-08-28T17:09:20.953Z,23.86
2022-08-28T17:11:52.157Z,23.78
2022-08-28T17:14:23.123Z,23.76
2022-08-28T17:16:54.931Z,23.78
2022-08-28T17:19:25.376Z,23.76
2022-08-28T17:22:10.642Z,23.70
2022-08-28T17:24:40.925Z,23.61
2022-08-28T17:27:11.324Z,23.53
2022-08-28T17:29:41.610Z,23.47
2022-08-28T17:32:14.670Z,23.40
2022-08-28T17:34:45.141Z,23.30
2022-08-28T17:37:18.039Z,23.18
2022-08-28T17:39:48.283Z,23.10
2022-08-28T17:42:18.586Z,23.01
2022-08-28T17:44:48.789Z,22.89
2022-08-28T17:47:26.278Z,22.82
2022-08-28T17:50:01.782Z,22.69
2022-08-28T17:52:35.439Z,22.62
2022-08-28T17:55:06.725Z,22.54
2022-08-28T17:57:36.910Z,22.48
2022-08-28T18:00:10.957Z,22.33
2022-08-28T18:02:44.422Z,22.24
2022-08-28T18:05:16.777Z,22.12
2022-08-28T18:07:49.839Z,22.01
2022-08-28T18:10:20.000Z,21.91
2022-08-28T18:12:50.530Z,21.79
2022-08-28T18:15:20.784Z,21.69
2022-08-28T18:17:50.952Z,21.58
2022-08-28T18:20:22.329Z,21.46
2022-08-28T18:22:55.520Z,21.36
2022-08-28T18:25:50.795Z,21.28
2022-08-28T18:28:25.181Z,21.15
2022-08-28T18:30:56.027Z,21.09
2022-08-28T18:33:27.434Z,20.95
2022-08-28T18:35:57.690Z,20.88
2022-08-28T18:38:35.086Z,20.79
2022-08-28T18:41:06.060Z,20.70
2022-08-28T18:43:36.733Z,20.57
2022-08-28T18:46:09.364Z,20.50
2022-08-28T18:48:40.761Z,20.43
2022-08-28T18:51:13.563Z,20.36
2022-08-28T18:53:46.514Z,20.30
2022-08-28T18:56:19.242Z,20.24
2022-08-28T18:58:51.912Z,20.19
2022-08-28T19:01:22.220Z,20.12
2022-08-28T19:03:52.601Z,20.02
2022-08-28T19:06:22.936Z,19.98
2022-08-28T19:08:55.914Z,19.94
2022-08-28T19:11:26.117Z,19.83
2022-08-28T19:13:56.271Z,19.79
2022-08-28T19:16:26.475Z,19.77
2022-08-28T19:18:56.663Z,19.71
2022-08-28T19:21:27.538Z,19.68
2022-08-28T19:24:01.100Z,19.64
2022-08-28T19:26:32.065Z,19.58
2022-08-28T19:29:03.128Z,19.55
2022-08-28T19:31:35.919Z,19.52
2022-08-28T19:34:07.769Z,19.50
2022-08-28T19:36:38.804Z,19.49
2022-08-28T19:39:11.723Z,19.42
2022-08-28T19:41:43.704Z,19.41
2022-08-28T19:44:14.190Z,19.34
2022-08-28T19:46:44.763Z,19.32
2022-08-28T19:49:15.121Z,19.29
2022-08-28T19:51:45.390Z,19.25
2022-08-28T19:54:18.297Z,19.18
2022-08-28T19:56:48.472Z,19.14
2022-08-28T19:59:18.732Z,19.11
2022-08-28T20:01:49.027Z,19.07
2022-08-28T20:04:19.644Z,19.05
2022-08-28T20:06:50.104Z,19.01
2022-08-28T20:09:23.036Z,18.96
2022-08-28T20:11:53.248Z,18.94
2022-08-28T20:14:24.545Z,18.91
2022-08-28T20:16:55.467Z,18.89
2022-08-28T20:19:25.760Z,18.86
2022-08-28T20:21:55.938Z,18.82
2022-08-28T20:24:29.216Z,18.79
2022-08-28T20:26:59.687Z,18.76
2022-08-28T20:29:30.215Z,18.72
2022-08-28T20:32:00.866Z,18.70
2022-08-28T20:34:32.076Z,18.67
2022-08-28T20:37:02.464Z,18.67
2022-08-28T20:39:37.171Z,18.63
2022-08-28T20:42:07.721Z,18.61
2022-08-28T20:44:38.294Z,18.61
2022-08-28T20:47:09.635Z,18.58
2022-08-28T20:49:39.747Z,18.54
2022-08-28T20:52:10.298Z,18.52
2022-08-28T20:54:44.880Z,18.48
2022-08-28T20:57:18.635Z,18.44
2022-08-28T20:59:50.263Z,18.41
2022-08-28T21:02:23.461Z,18.37
2022-08-28T21:04:55.257Z,18.35
2022-08-28T21:07:28.058Z,18.30
2022-08-28T21:10:07.157Z,18.31
2022-08-28T21:12:38.921Z,18.29
2022-08-28T21:15:12.593Z,18.30
2022-08-28T21:17:43.077Z,18.25
2022-08-28T21:20:17.498Z,18.20
2022-08-28T21:22:48.496Z,18.19
2022-08-28T21:25:25.885Z,18.16
2022-08-28T21:27:56.353Z,18.15
2022-08-28T21:30:29.680Z,18.12
2022-08-28T21:33:00.136Z,18.07
2022-08-28T21:35:30.442Z,18.07
2022-08-28T21:38:00.679Z,18.02
2022-08-28T21:40:35.341Z,17.99
2022-08-28T21:43:05.795Z,17.98
2022-08-28T21:45:36.604Z,17.94
2022-08-28T21:48:06.969Z,17.90
2022-08-28T21:50:37.213Z,17.87
2022-08-28T21:53:07.450Z,17.85
2022-08-28T21:55:40.278Z,17.81
2022-08-28T21:58:11.967Z,17.80
2022-08-28T22:00:42.198Z,17.77
2022-08-28T22:03:12.375Z,17.79
2022-08-28T22:05:45.735Z,17.76
2022-08-28T22:08:17.399Z,17.72
2022-08-28T22:10:50.274Z,17.70
2022-08-28T22:13:21.023Z,17.68
2022-08-28T22:15:51.226Z,17.67
2022-08-28T22:18:21.719Z,17.64
2022-08-28T22:21:14.660Z,17.64
2022-08-28T22:23:45.113Z,17.62
2022-08-28T22:26:21.456Z,17.60
2022-08-28T22:28:51.758Z,17.52
2022-08-28T22:31:22.041Z,17.51
2022-08-28T22:33:52.653Z,17.53
2022-08-28T22:36:24.377Z,17.49
2022-08-28T22:38:59.765Z,17.46
2022-08-28T22:41:33.109Z,17.45
2022-08-28T22:44:03.678Z,17.42
2022-08-28T22:46:33.879Z,17.39
2022-08-28T22:49:04.056Z,17.40
2022-08-28T22:51:37.336Z,17.39
2022-08-28T22:54:08.760Z,17.37
2022-08-28T22:56:42.256Z,17.35
2022-08-28T22:59:12.751Z,17.31
2022-08-28T23:01:44.587Z,17.32
2022-08-28T23:04:16.125Z,17.29
2022-08-28T23:06:46.452Z,17.26
2022-08-28T23:09:16.679Z,17.25
2022-08-28T23:11:50.077Z,17.23
2022-08-28T23:14:20.873Z,17.18
2022-08-28T23:16:50.955Z,17.13
2022-08-28T23:19:21.618Z,17.09
2022-08-28T23:21:52.480Z,17.07
2022-08-28T23:24:22.917Z,17.04
2022-08-28T23:26:55.784Z,17.04
2022-08-28T23:29:26.211Z,17.03
2022-08-28T23:31:56.423Z,17.06
2022-08-28T23:34:28.431Z,17.11
2022-08-28T23:36:58.714Z,17.06
2022-08-28T23:39:29.148Z,17.03
2022-08-28T23:42:03.210Z,16.96
2022-08-28T23:44:33.688Z,16.92
2022-08-28T23:47:04.140Z,16.90
2022-08-28T23:49:35.538Z,16.88
2022-08-28T23:52:14.360Z,16.85
2022-08-28T23:54:44.597Z,16.86
2022-08-28T23:57:18.077Z,16.86
2022-08-28T23:59:48.381Z,16.83
